F/V Lisa Melinda — WYC3746 — position and weather

sailwx.info

Track history (hours):
 
Tides and Currents Weather Stations Pressure Air Temp Water Temp Dewpoint Dewpoint Depression Visibility Wind Speed Wind Dir Waves Ship Positions

F/V Lisa Melinda

Owner: LISA MELINDA FISHERIES INC, NEWPORT, OR. More information available from US FCC via Universal Licensing System and Coast Guard Vessel Documentation Center.

Last reported at 2017-Oct-17 07:04 UTC. Time now 2017-Oct-17 22:55 UTC.
Position N 43°18' W 124°56'.

Length 26 m.

Type: Fishing. MMSI: 366738920.

Date/timePositionNaut miles runAvg speedWind from/ knotsBaromVisibWave heightAir tempDewpointWater temp
2017-Oct-17 07:04N 43°18' W 124°56'0 2.9
2017-Oct-17 07:00N 43°18' W 124°56'1 3.0
2017-Oct-17 06:30N 43°20' W 124°56'20 1.4
2017-Oct-16 16:07N 43°38' W 124°44'3 8.4
2017-Oct-16 15:44N 43°41' W 124°43'9 8.2
2017-Oct-16 14:39N 43°50' W 124°41'3 4.7
2017-Oct-16 13:58N 43°51' W 124°36'3 4.1
2017-Oct-16 13:19N 43°48' W 124°36'3 7.2
2017-Oct-16 12:54N 43°49' W 124°39'3 7.1
2017-Oct-16 12:30N 43°49' W 124°43'  
2017-Oct-10 10:12N 44°07' W 124°59'1 2.1
2017-Oct-10 09:57N 44°07' W 124°59'4 3.0
2017-Oct-10 08:38N 44°11' W 124°59'1 3.3
2017-Oct-10 08:18N 44°12' W 124°59'3 4.9
2017-Oct-10 07:47N 44°15' W 124°58'5 7.0
2017-Oct-10 07:07N 44°19' W 124°56'4 6.5
2017-Oct-10 06:27N 44°23' W 124°58'6 6.5
2017-Oct-10 05:29N 44°29' W 125°02'6 6.1
2017-Oct-10 04:34N 44°34' W 125°04'0 5.1
2017-Oct-10 04:30N 44°35' W 125°04'4 6.0
2017-Oct-10 03:50N 44°39' W 125°04'1 3.0
2017-Oct-10 03:23N 44°38' W 125°02'5 5.5
2017-Oct-10 02:26N 44°35' W 124°56'4 7.6
2017-Oct-10 01:53N 44°35' W 124°50'6 8.6
2017-Oct-10 01:11N 44°35' W 124°42'2 8.4
2017-Oct-10 00:58N 44°35' W 124°39'14 8.1
2017-Oct-09 23:13N 44°36' W 124°20'0 2.2
2017-Oct-09 23:00N 44°36' W 124°19'  
2017-Oct-07 09:58N 43°42' W 124°40'2 2.6
2017-Oct-07 09:23N 43°44' W 124°41'1 2.7
2017-Oct-07 08:59N 43°45' W 124°41'3 2.6
2017-Oct-07 07:54N 43°47' W 124°40'  
Track history (hours):
 
Tides and Currents Weather Stations Pressure Air Temp Water Temp Dewpoint Dewpoint Depression Visibility Wind Speed Wind Dir Waves Ship Positions

F/V Lisa Melinda

Owner: LISA MELINDA FISHERIES INC, NEWPORT, OR. More information available from US FCC via Universal Licensing System and Coast Guard Vessel Documentation Center.

Last reported at 2017-Oct-17 07:04 UTC. Time now 2017-Oct-17 22:55 UTC.
Position N 43°18' W 124°56'.

Length 26 m.

Type: Fishing. MMSI: 366738920.

Date/timePositionNaut miles runAvg speedWind from/ knotsBaromVisibWave heightAir tempDewpointWater temp
2017-Oct-17 07:04N 43°18' W 124°56'0 2.9
2017-Oct-17 07:00N 43°18' W 124°56'1 3.0
2017-Oct-17 06:30N 43°20' W 124°56'20 1.4
2017-Oct-16 16:07N 43°38' W 124°44'3 8.4
2017-Oct-16 15:44N 43°41' W 124°43'9 8.2
2017-Oct-16 14:39N 43°50' W 124°41'3 4.7
2017-Oct-16 13:58N 43°51' W 124°36'3 4.1
2017-Oct-16 13:19N 43°48' W 124°36'3 7.2
2017-Oct-16 12:54N 43°49' W 124°39'3 7.1
2017-Oct-16 12:30N 43°49' W 124°43'  
2017-Oct-10 10:12N 44°07' W 124°59'1 2.1
2017-Oct-10 09:57N 44°07' W 124°59'4 3.0
2017-Oct-10 08:38N 44°11' W 124°59'1 3.3
2017-Oct-10 08:18N 44°12' W 124°59'3 4.9
2017-Oct-10 07:47N 44°15' W 124°58'5 7.0
2017-Oct-10 07:07N 44°19' W 124°56'4 6.5
2017-Oct-10 06:27N 44°23' W 124°58'6 6.5
2017-Oct-10 05:29N 44°29' W 125°02'6 6.1
2017-Oct-10 04:34N 44°34' W 125°04'0 5.1
2017-Oct-10 04:30N 44°35' W 125°04'4 6.0
2017-Oct-10 03:50N 44°39' W 125°04'1 3.0
2017-Oct-10 03:23N 44°38' W 125°02'5 5.5
2017-Oct-10 02:26N 44°35' W 124°56'4 7.6
2017-Oct-10 01:53N 44°35' W 124°50'6 8.6
2017-Oct-10 01:11N 44°35' W 124°42'2 8.4
2017-Oct-10 00:58N 44°35' W 124°39'14 8.1
2017-Oct-09 23:13N 44°36' W 124°20'0 2.2
2017-Oct-09 23:00N 44°36' W 124°19'  
2017-Oct-07 09:58N 43°42' W 124°40'2 2.6
2017-Oct-07 09:23N 43°44' W 124°41'1 2.7
2017-Oct-07 08:59N 43°45' W 124°41'3 2.6
2017-Oct-07 07:54N 43°47' W 124°40'  

Dump ship's entire track history